»·PEaware :: PAA576 KSLC-KSNA

PAA576 :: KSLC-KSNA

FLIGHT INFORMATION

Flight Status: Arrived
Operator:
PanAm
More flights by this operator :: More flights under this callsign
Pilot: Anonymous 8274 (8274)
Aircraft: BOEING 727-200
(B722)
More flights by this aircraft type
Origin: KSLC Salt Lake City Intl
United States
Destination: KSNA John Wayne-Orange Co
United States
More flights between these airports :: More routes between these airports
Route: +SEVYR3 MLF J107 HEC KAYOH7
File this flight plan on PilotEdge
Remarks:
Altitude:
(Current/Filed)
32,000ft
Speed:
(Current/Filed)
475kts
Departed: 11-Sep-18 04:29 PM
Arrived: 11-Sep-18 06:03 PM
Distance/Time
Traveled:
511nm/1:34
Distance/Time
To Go:
Arrived

Flight Plot

Page will automatically refresh every two minutes.

Flight plan parsing failed; only flown route is shown


Map Options




Map Legend


Flown Route
Filed Route
Departure Airport
Arrival Airport
Navaid (VOR, NDB)
Fix

Horizontal Profiles

Position Reports

Time Latitude Longitude Heading Altitude Ground
Speed
11-Sep-18 15:38 40.788089 -111.980900 283 4239ft 0kts
11-Sep-18 15:39 40.788089 -111.980900 283 4239ft 0kts
11-Sep-18 15:40 40.788089 -111.980900 283 4239ft 0kts
11-Sep-18 15:41 40.788089 -111.980900 283 4239ft 0kts
11-Sep-18 15:42 40.788089 -111.980900 283 4239ft 0kts
11-Sep-18 15:43 40.788089 -111.980900 283 4239ft 0kts
11-Sep-18 15:44 40.788089 -111.980900 283 4239ft 0kts
11-Sep-18 15:45 40.788089 -111.980900 283 4239ft 0kts
11-Sep-18 15:46 40.788089 -111.980900 283 4239ft 0kts
11-Sep-18 15:47 40.788089 -111.980900 283 4239ft 0kts
11-Sep-18 15:48 40.788089 -111.980900 283 4239ft 0kts
11-Sep-18 15:49 40.788089 -111.980900 283 4239ft 0kts
11-Sep-18 15:50 40.788089 -111.980900 283 4239ft 0kts
11-Sep-18 15:51 40.788089 -111.980900 283 4239ft 0kts
11-Sep-18 15:52 40.788089 -111.980900 283 4239ft 0kts
11-Sep-18 15:53 40.788089 -111.980900 283 4239ft 0kts
11-Sep-18 15:54 40.788089 -111.980900 283 4239ft 0kts
11-Sep-18 15:55 40.788089 -111.980900 283 4239ft 0kts
11-Sep-18 15:56 40.788089 -111.980900 283 4239ft 0kts
11-Sep-18 15:57 40.788089 -111.980900 283 4239ft 0kts
11-Sep-18 15:58 40.788089 -111.980900 283 4239ft 0kts
11-Sep-18 15:59 40.788089 -111.980900 283 4239ft 0kts
11-Sep-18 16:00 40.788089 -111.980900 283 4239ft 0kts
11-Sep-18 16:01 40.788089 -111.980900 283 4239ft 0kts
11-Sep-18 16:02 40.788089 -111.980900 283 4239ft 0kts
11-Sep-18 16:03 40.788089 -111.980900 283 4239ft 0kts
11-Sep-18 16:04 40.788089 -111.980900 283 4239ft 0kts
11-Sep-18 16:05 40.788089 -111.980900 283 4239ft 0kts
11-Sep-18 16:06 40.788089 -111.980900 283 4239ft 0kts
11-Sep-18 16:07 40.788089 -111.980900 283 4239ft 0kts
11-Sep-18 16:08 40.788089 -111.980900 283 4239ft 0kts
11-Sep-18 16:09 40.788089 -111.980900 283 4239ft 0kts
11-Sep-18 16:10 40.788036 -111.980615 283 4239ft 2kts
11-Sep-18 16:11 40.787584 -111.980289 20 4239ft 1kts
11-Sep-18 16:12 40.787571 -111.980296 20 4239ft 0kts
11-Sep-18 16:13 40.787571 -111.980296 20 4239ft 0kts
11-Sep-18 16:18 40.787668 -111.980729 285 4239ft 5kts
11-Sep-18 16:19 40.787312 -111.980411 16 4239ft 0kts
11-Sep-18 16:20 40.787312 -111.980411 16 4239ft 0kts
11-Sep-18 16:21 40.787313 -111.980410 16 4239ft 0kts
11-Sep-18 16:22 40.789279 -111.979684 25 4239ft 10kts
11-Sep-18 16:23 40.789690 -111.978572 86 4239ft 1kts
11-Sep-18 16:24 40.787840 -111.976832 176 4239ft 15kts
11-Sep-18 16:25 40.781720 -111.976153 175 4239ft 23kts
11-Sep-18 16:26 40.775076 -111.974901 173 4239ft 13kts
11-Sep-18 16:27 40.774757 -111.974783 152 4239ft 0kts
11-Sep-18 16:28 40.774757 -111.974783 152 4239ft 0kts
11-Sep-18 16:29 40.774540 -111.974566 129 4239ft 6kts
11-Sep-18 16:30 40.775593 -111.973237 355 4239ft 0kts
11-Sep-18 16:31 40.776618 -111.973355 354 4239ft 43kts
11-Sep-18 16:32 40.814007 -111.978361 346 5048ft 171kts
11-Sep-18 16:33 40.832728 -112.034912 270 6604ft 199kts
11-Sep-18 16:34 40.833376 -112.113468 270 8181ft 242kts
11-Sep-18 16:35 40.834203 -112.211255 272 10289ft 275kts
11-Sep-18 16:36 40.813799 -112.307372 213 12213ft 303kts
11-Sep-18 16:37 40.722436 -112.319895 181 13273ft 359kts
11-Sep-18 16:38 40.624399 -112.317175 181 16036ft 353kts
11-Sep-18 16:39 40.525154 -112.314313 181 17942ft 364kts
11-Sep-18 16:40 40.422673 -112.311485 181 19682ft 374kts
11-Sep-18 16:41 40.323829 -112.345865 207 21170ft 377kts
11-Sep-18 16:42 40.230035 -112.409560 211 22589ft 385kts
11-Sep-18 16:43 40.135455 -112.477997 211 23883ft 393kts
11-Sep-18 16:44 40.041213 -112.551780 214 25038ft 400kts
11-Sep-18 16:45 39.946081 -112.628811 214 26098ft 407kts
11-Sep-18 16:46 39.849059 -112.701360 210 27033ft 414kts
11-Sep-18 16:47 39.747390 -112.773542 210 27930ft 420kts
11-Sep-18 16:48 39.637786 -112.822497 183 28657ft 434kts
11-Sep-18 16:49 39.517172 -112.830017 186 29391ft 438kts
11-Sep-18 16:50 39.396307 -112.849612 189 30073ft 442kts
11-Sep-18 16:51 39.274512 -112.869858 189 30883ft 442kts
11-Sep-18 16:52 39.152774 -112.889982 189 31591ft 442kts
11-Sep-18 16:53 39.030993 -112.910287 189 32076ft 447kts
11-Sep-18 16:54 38.906855 -112.931166 189 32076ft 453kts
11-Sep-18 16:55 38.784269 -112.951772 189 32080ft 457kts
11-Sep-18 16:56 38.657590 -112.972504 187 32102ft 462kts
11-Sep-18 16:57 38.529626 -112.989052 187 32103ft 467kts
11-Sep-18 16:58 38.400245 -113.005812 187 32103ft 472kts
11-Sep-18 16:59 38.279221 -113.054164 221 32123ft 462kts
11-Sep-18 17:00 38.179744 -113.157898 221 32103ft 466kts
11-Sep-18 17:01 38.069878 -113.246984 214 32104ft 471kts
11-Sep-18 17:02 37.961068 -113.339301 216 32144ft 473kts
11-Sep-18 17:03 37.854379 -113.425218 213 32155ft 476kts
11-Sep-18 17:04 37.741185 -113.512515 213 32154ft 479kts
11-Sep-18 17:05 37.627191 -113.600354 213 32154ft 482kts
11-Sep-18 17:06 37.517195 -113.685037 213 32157ft 484kts
11-Sep-18 17:07 37.402634 -113.773157 213 32157ft 486kts
11-Sep-18 17:08 37.287905 -113.864083 216 31977ft 491kts
11-Sep-18 17:09 37.175288 -113.961074 216 31968ft 490kts
11-Sep-18 17:10 37.063539 -114.057233 216 31968ft 488kts
11-Sep-18 17:11 36.949518 -114.147822 212 31968ft 487kts
11-Sep-18 17:12 36.837146 -114.228236 209 31965ft 487kts
11-Sep-18 17:13 36.717527 -114.306675 209 31965ft 485kts
11-Sep-18 17:14 36.598762 -114.384834 209 31965ft 484kts
11-Sep-18 17:15 36.481353 -114.465872 212 31860ft 484kts
11-Sep-18 17:16 36.365958 -114.550084 215 31858ft 481kts
11-Sep-18 17:17 36.253712 -114.639882 215 31857ft 481kts
11-Sep-18 17:18 36.144184 -114.727384 214 31908ft 479kts
11-Sep-18 17:19 36.032614 -114.816385 214 31901ft 480kts
11-Sep-18 17:20 35.921048 -114.905620 217 31910ft 478kts
11-Sep-18 17:21 35.843974 -115.028067 237 31922ft 470kts
11-Sep-18 17:22 35.769803 -115.160931 237 31914ft 471kts
11-Sep-18 17:23 35.683212 -115.280031 225 31938ft 472kts
11-Sep-18 17:24 35.589412 -115.391717 229 31938ft 471kts
11-Sep-18 17:25 35.499553 -115.508777 228 31940ft 471kts
11-Sep-18 17:26 35.409771 -115.625793 229 31939ft 472kts
11-Sep-18 17:27 35.327185 -115.733329 228 31941ft 473kts
11-Sep-18 17:28 35.237286 -115.850265 228 31967ft 473kts
11-Sep-18 17:29 35.147183 -115.967326 228 31969ft 474kts
11-Sep-18 17:30 35.056759 -116.084686 228 31968ft 475kts
11-Sep-18 17:31 34.966370 -116.201884 228 31969ft 476kts
11-Sep-18 17:32 34.882822 -116.310108 229 31965ft 477kts
11-Sep-18 17:33 34.796746 -116.428010 231 31957ft 468kts
11-Sep-18 17:34 34.719091 -116.547240 236 30276ft 444kts
11-Sep-18 17:35 34.637019 -116.653062 226 28289ft 433kts
11-Sep-18 17:36 34.565539 -116.741758 229 26561ft 423kts
11-Sep-18 17:37 34.487007 -116.845421 229 24665ft 412kts
11-Sep-18 17:38 34.410501 -116.945840 229 22835ft 401kts
11-Sep-18 17:39 34.332360 -117.036600 223 19389ft 382kts
11-Sep-18 17:40 34.255649 -117.117798 220 15200ft 368kts
11-Sep-18 17:41 34.160725 -117.140920 182 13747ft 360kts
11-Sep-18 17:42 34.061865 -117.142010 181 12210ft 353kts
11-Sep-18 17:43 33.966223 -117.146870 185 11347ft 338kts
11-Sep-18 17:44 33.881091 -117.155938 193 11145ft 304kts
11-Sep-18 17:45 33.804505 -117.172556 193 11095ft 255kts
11-Sep-18 17:46 33.753595 -117.204673 265 10997ft 203kts
11-Sep-18 17:47 33.764318 -117.273064 288 9733ft 216kts
11-Sep-18 17:48 33.777764 -117.343863 273 8445ft 221kts
11-Sep-18 17:49 33.781456 -117.417348 270 8147ft 225kts
11-Sep-18 17:50 33.780618 -117.493828 269 8127ft 224kts
11-Sep-18 17:51 33.789543 -117.565014 302 8080ft 212kts
11-Sep-18 17:52 33.820007 -117.627786 302 7072ft 217kts
11-Sep-18 17:53 33.848658 -117.686231 302 6177ft 214kts
11-Sep-18 17:54 33.868514 -117.749870 244 5196ft 214kts
11-Sep-18 17:55 33.825506 -117.793204 259 4526ft 211kts
11-Sep-18 17:56 33.857409 -117.827053 31 4100ft 176kts
11-Sep-18 17:57 33.898277 -117.798289 31 4083ft 168kts
11-Sep-18 17:58 33.886037 -117.759287 180 4176ft 190kts
11-Sep-18 17:59 33.840055 -117.764547 203 3641ft 148kts
11-Sep-18 18:00 33.803933 -117.787114 209 2899ft 145kts
11-Sep-18 18:01 33.769610 -117.809163 206 2095ft 142kts
11-Sep-18 18:02 33.735024 -117.831059 209 1308ft 140kts
11-Sep-18 18:03 33.695182 -117.856550 208 412ft 138kts
11-Sep-18 18:04 33.670506 -117.872102 207 68ft 52kts
11-Sep-18 18:05 33.668636 -117.871395 41 68ft 13kts
11-Sep-18 18:06 33.672687 -117.867674 31 68ft 20kts
11-Sep-18 18:07 33.677915 -117.864074 27 68ft 23kts

Navigation Log

Ident Type
Flight plan parsing failed, navigation log unavailable